x

Prince Edward Pt (45135) Wave Buoy

11:00pm - Wed 2nd Sep 2015 All times are CDT. -5 hours from GMT.

  • Sig Wave height 0.3ft
  • Peak Period 2s
  • Wind
    4mph
  • Sea Temp 73°f
  • Air Temp 75°f
  • Sea Pressure 1013.1mb
  • Prince Edward Pt
  • Prince Edward Pt

More Historic Weather Station data

Upgrade to MSW Pro to gain access to the past 30 days of data for over 8000 Wavebouys and Weather Stations around the globe.

Join Pro

Comparision Forecast

View Surf forecast
   
Wed 09/02 11:00pm 0.3ft 2s 4
mph
1013.1mb 73f 75f
10:00pm 0.3ft 2s 7 9 mph 1013mb 73f 75f
9:00pm 0.3ft 3s 4 7 mph 1013.4mb 73f 74f
8:00pm 0.3ft 3s 7 9 mph 1013.1mb 74f 74f
7:00pm 0.3ft 3s 7 9 mph 1012.7mb 74f 74f
6:00pm 0.3ft 3s 7 9 mph 1012.8mb 74f 74f
5:00pm 0.7ft 3s 4 7 mph 1013.3mb 74f 74f
4:00pm 0.7ft 3s 7 9 mph 1013.7mb 74f 75f
3:00pm 0.7ft 3s 7 9 mph 1014.2mb 74f 74f
2:00pm 0.7ft 3s 7 9 mph 1015mb 74f 74f
1:00pm 0.7ft 3s 9
mph
1015.4mb 73f 73f
12:00pm 0.7ft 3s 11
mph
1015.7mb 73f 72f
11:00am 0.7ft 3s 9 11 mph 1016.2mb 73f 72f
10:00am 0.7ft 3s 7 9 mph 1016.7mb 73f 70f
9:00am 0.7ft 3s 2 4 mph 1016.4mb 73f 72f
8:00am 0.7ft 3s 4
mph
1016.6mb 72f 71f
7:00am 0.7ft 2s 9 11 mph 1016.6mb 72f 71f
6:00am 0.7ft 2s 9 11 mph 1016.2mb 72f 72f
5:00am 0.7ft 2s 11
mph
1015.9mb 72f 73f
4:00am 0.7ft 2s 9
mph
1015.8mb 73f 73f
3:00am 0.3ft 2s 9 11 mph 1016.1mb 73f 73f
2:00am 0.3ft 2s 9 11 mph 1016.4mb 73f 73f
1:00am 0.3ft 2s 7 9 mph 1016.5mb 73f 73f
12:00am 0.3ft 3s 7 9 mph 1016.9mb 73f 73f
Tue 09/01 11:00pm 0.3ft 3s 7
mph
1016.8mb 73f 73f
10:00pm 0.3ft 3s 9
mph
1016.9mb 73f 73f
9:00pm 0.3ft 3s 7 9 mph 1017mb 73f 73f
8:00pm 0.3ft 3s 7 9 mph 1017.1mb 73f 73f
7:00pm 0.3ft 3s 9
mph
1016.7mb 73f 73f
6:00pm 0.3ft 3s 7 9 mph 1016.7mb 73f 72f
5:00pm 0.7ft 3s 4 7 mph 1016.8mb 73f 72f
4:00pm 0.7ft 3s 4 7 mph 1017mb 73f 71f
3:00pm 1ft 3s 7
mph
1017.3mb 73f 71f
2:00pm 1ft 3s 9 11 mph 1017.6mb 73f 70f
1:00pm 1ft 3s 11 16 mph 1018mb 73f 70f
12:00pm 1ft 3s 13
mph
1018.1mb 73f 71f
11:00am 0.7ft 3s 13 16 mph 1018.4mb 73f 71f
10:00am 0.7ft 5s 9
mph
1018.6mb 73f 71f
9:00am 0.7ft 3s 4 7 mph 1018.4mb 72f 71f
8:00am 0.7ft 3s 2
mph
1018mb 72f 70f
7:00am 0.7ft 3s 7
mph
1017.9mb 72f 70f
6:00am 0.7ft 3s 4 7 mph 1017.6mb 72f 70f
5:00am 0.3ft 3s 7
mph
1017.1mb 72f 70f
4:00am 0.7ft 3s 7
mph
1016.9mb 72f 71f
3:00am 0.7ft 3s 7
mph
1016.6mb 72f 71f
2:00am 0.7ft 4s 7 9 mph 1016.4mb 72f 72f
1:00am 1ft 4s 4 7 mph 1016.4mb 72f 73f
12:00am 1ft 4s 7 9 mph 1016.3mb 72f 73f
Mon 08/31 11:00pm 1ft 4s 7
mph
1016mb 72f 73f
10:00pm 1.3ft 4s 9
mph
1016.1mb 72f 73f
9:00pm 1.3ft 4s 9 11 mph 1015.9mb 72f 74f
8:00pm 1.3ft 4s 9 11 mph 1015.8mb 72f 74f
7:00pm 1.3ft 4s 11 13 mph 1015.4mb 72f 73f
5:00pm 1.6ft 4s 9 11 mph 1015.3mb 73f 73f
4:00pm 1.6ft 4s 11 13 mph 1014.9mb 72f 73f
3:00pm 2ft 4s 13 18 mph 1015.1mb 72f 73f
2:00pm 2ft 4s 13 16 mph 1015.3mb 72f 73f
1:00pm 2ft 4s 13 16 mph 1015.7mb 72f 72f
12:00pm 2ft 4s 16 18 mph 1015.9mb 72f 72f
11:00am 1.6ft 3s 16 18 mph 1015.9mb 72f 71f
10:00am 1.6ft 3s 13 16 mph 1016.3mb 72f 71f
9:00am 1.6ft 3s 13 16 mph 1016.1mb 72f 71f
8:00am 1.6ft 3s 13 16 mph 1015.8mb 72f 71f
7:00am 1.3ft 3s 13 16 mph 1015.6mb 71f 72f
6:00am 1.3ft 3s 13 18 mph 1015.1mb 71f 72f
5:00am 1.3ft 3s 13 16 mph 1014.7mb 71f 72f
4:00am 1.3ft 3s 13 16 mph 1014.9mb 72f 72f
3:00am 1ft 3s 13 16 mph 1015.1mb 72f 73f
2:00am 1ft 2s 11 13 mph 1015.1mb 72f 72f
1:00am 0.7ft 2s 9 13 mph 1015.3mb 72f 72f
12:00am 0.7ft 2s 9 11 mph 1015.9mb 72f 72f
Sun 08/30 11:00pm 0.3ft 2s 9
mph
1016mb 72f 72f
10:00pm 0.3ft 2s 9 11 mph 1016.2mb 72f 72f
9:00pm 0.3ft 5s 9 11 mph 1016.3mb 72f 72f
8:00pm 0.3ft 2s 9 11 mph 1016.5mb 72f 72f
7:00pm 0.3ft 4s 7 9 mph 1016.4mb 72f 72f
6:00pm 0.3ft 2s 7
mph
1016.1mb 72f 72f
5:00pm 0.3ft 2s 7
mph
1016.4mb 72f 72f
4:00pm 0.3ft 2s 7 9 mph 1016.4mb 72f 72f
3:00pm 0.3ft 2s 9
mph
1017mb 73f 71f
2:00pm 0.3ft 2s 7 9 mph 1017.6mb 72f 71f
1:00pm 0.3ft 2s 4 7 mph 1018.1mb 72f 71f
12:00pm 0.7ft 2s 7 9 mph 1018.2mb 72f 71f
11:00am 0.7ft 2s 4 7 mph 1018.8mb 72f 70f
10:00am 0.3ft 2s 7
mph
1019.1mb 71f 70f
9:00am 0.3ft 2s 9 11 mph 1018.8mb 71f 71f
8:00am 0.3ft 2s 7 9 mph 1018.6mb 71f 71f
7:00am 0.3ft 2s 7
mph
1018.5mb 71f 71f
6:00am 0.3ft 2s 4
mph
1018.4mb 71f 71f